Terminal Aerodrome Forecast
Issued by NWS Portland, ME

Home | Current Version | Previous Version | Text Only | Print | Product List | Glossary On
Versions: 1 2 3 4 5 6 7 8 9 10 11 12 13 14 15 16 17
000
FTUS41 KGYX 160904 AAA
TAFCON
TAF AMD
KCON 160904Z 1609/1706 00000KT P6SM -SHRA SCT025 OVC060
      TEMPO 1610/1613 4SM -SHRA BR OVC025
     FM161800 31005KT P6SM SCT100 SCT250=

USA.gov is the U.S. government's official web portal to all federal, state and local government web resources and services.